Latest Weather Observations for Batchelor

IDD60901

Issued at 1:15 pm CST Saturday 25 October 2014 (issued every 10 minutes, with the page automatically refreshed every 10 minutes)

About weather observations | Map of Darwin area stations | Latest observations for Darwin area | Other Formats
Station Details ID: 014272 Name: BATCHELOR AIRPORT Lat: -13.05 Lon: 131.03 Height: 104.0 m
Data from the previous 72 hours. | See also: Recent months at Batchelor
Date/Time
CST
Tmp

°C
App
Tmp
°C
Dew
Point
°C
Rel
Hum
%
Delta-T

°C
Wind Press
QNH
hPa
Press
MSL
hPa
Rain
since
9 am
mm
Dir
 
Spd
km/h
Gust
km/h
Spd
kts
Gust
kts
25/01:00pm 35.0 33.2 12.0 25 13.8 ESE 13 24 7 13 1012.9 1012.1 0.0
25/12:30pm 34.9 32.5 12.5 25 13.5 SE 17 28 9 15 1013.5 1012.7 0.0
25/12:00pm 34.7 33.3 13.5 28 12.9 E 13 20 7 11 1014.0 1013.2 0.0
25/11:30am 33.8 32.4 13.3 29 12.4 E 13 28 7 15 1014.6 1013.8 0.0
25/11:00am 31.9 31.6 13.2 32 11.3 ESE 7 19 4 10 1015.1 1014.3 0.0
25/10:30am 31.4 32.8 17.3 43 9.0 E 6 15 3 8 1015.5 1014.7 0.0
25/10:00am 30.4 32.3 18.5 49 7.7 N 6 9 3 5 1015.9 1015.1 0.0
25/09:30am 29.8 32.5 19.5 54 6.7 NE 4 7 2 4 1016.2 1015.4 0.0
25/09:00am 28.6 30.9 19.5 58 5.9 E 6 9 3 5 1016.3 1015.5 0.0
25/08:30am 28.0 30.5 19.8 61 5.4 NNE 6 7 3 4 1016.2 1015.4 0.0
25/08:00am 27.5 29.9 20.1 64 4.9 NE 7 9 4 5 1016.2 1015.4 0.0
25/07:30am 25.9 28.7 20.5 72 3.5 NE 6 7 3 4 1015.9 1015.1 0.0
25/07:00am 23.7 27.9 21.0 85 1.8 CALM 0 0 0 0 1015.6 1014.8 0.0
25/06:30am 23.1 27.3 21.0 88 1.4 CALM 0 0 0 0 1015.2 1014.4 0.0
25/06:00am 23.1 26.5 20.2 84 1.9 NE 2 4 1 2 1014.6 1013.8 0.0
25/05:30am 23.9 27.5 21.2 85 1.8 NE 4 4 2 2 1014.3 1013.5 0.0
25/05:00am 23.9 27.5 21.2 85 1.8 E 4 6 2 3 1014.0 1013.2 0.0
25/04:30am 23.5 27.1 20.6 84 1.9 E 2 4 1 2 1013.6 1012.8 0.0
25/04:00am 23.9 28.1 21.0 84 1.9 CALM 0 0 0 0 1013.4 1012.6 0.0
25/03:30am 24.1 28.1 20.6 81 2.3 CALM 0 0 0 0 1013.3 1012.5 0.0
25/03:00am 24.3 28.2 20.4 79 2.5 CALM 0 4 0 2 1013.4 1012.6 0.0
25/02:30am 24.9 28.8 20.4 76 2.9 CALM 0 0 0 0 1013.6 1012.8 0.0
25/02:00am 25.8 29.6 21.0 75 3.2 E 2 6 1 3 1013.9 1013.1 0.0
25/01:30am 25.3 28.9 20.5 75 3.1 NNE 2 4 1 2 1013.9 1013.1 0.0
25/01:00am 25.1 28.4 19.9 73 3.4 ENE 2 4 1 2 1013.7 1012.9 0.0
25/12:30am 26.1 29.5 20.2 70 3.9 ENE 2 4 1 2 1013.8 1013.0 0.0
25/12:00am 25.8 28.9 19.4 67 4.1 E 2 4 1 2 1013.8 1013.0 0.0
 
Date/Time
CST
Tmp

°C
App
Tmp
°C
Dew
Point
°C
Rel
Hum
%
Delta-T

°C
Wind Press
QNH
hPa
Press
MSL
hPa
Rain
since
9 am
mm
Dir
 
Spd
km/h
Gust
km/h
Spd
kts
Gust
kts
24/11:30pm 26.1 28.7 20.0 69 4.0 E 6 7 3 4 1014.0 1013.2 0.0
24/11:00pm 26.0 29.7 19.9 69 4.0 CALM 0 0 0 0 1014.0 1013.2 0.0
24/10:30pm 26.5 29.9 19.4 65 4.6 CALM 0 0 0 0 1013.8 1013.0 0.0
24/10:00pm 27.1 29.9 19.7 64 4.8 NW 4 7 2 4 1013.5 1012.7 0.0
24/09:30pm 27.6 30.0 19.7 62 5.2 NW 6 7 3 4 1013.0 1012.2 0.0
24/09:00pm 28.1 30.3 19.6 60 5.6 W 7 11 4 6 1012.5 1011.8 0.0
24/08:30pm 28.4 30.6 19.6 59 5.8 WNW 7 13 4 7 1012.1 1011.4 0.0
24/08:00pm 28.7 30.7 19.9 59 5.8 W 9 15 5 8 1011.5 1010.8 0.0
24/07:30pm 29.1 30.6 19.7 57 6.2 W 11 17 6 9 1011.1 1010.4 0.0
24/07:00pm 29.7 30.7 19.4 54 6.7 W 13 20 7 11 1010.6 1009.9 0.0
24/06:30pm 30.4 31.5 19.7 52 7.0 W 13 28 7 15 1010.2 1009.5 0.0
24/06:00pm 31.1 31.1 20.1 52 7.3 W 20 30 11 16 1009.8 1009.1 0.0
24/05:30pm 34.4 33.6 18.0 37 10.7 W 19 24 10 13 1009.3 1008.5 0.0
24/05:00pm 36.2 34.6 8.1 18 15.9 SE 6 9 3 5 1008.9 1008.1 0.0
24/04:30pm 36.9 33.9 7.8 17 16.5 E 13 20 7 11 1009.0 1008.2 0.0
24/04:00pm 37.4 35.8 8.2 17 16.7 SSE 6 13 3 7 1009.2 1008.4 0.0
24/03:30pm 36.0 33.4 9.5 20 15.4 E 13 24 7 13 1009.4 1008.6 0.0
24/03:00pm 37.0 34.3 10.3 20 15.7 E 15 22 8 12 1009.6 1008.9 0.0
24/02:30pm 36.0 33.4 9.5 20 15.4 E 13 28 7 15 1009.8 1009.1 0.0
24/02:00pm 36.8 33.1 9.4 19 15.9 ESE 19 30 10 16 1010.3 1009.6 0.0
24/01:30pm 36.5 34.4 11.3 22 15.0 E 13 32 7 17 1010.7 1010.0 0.0
24/01:00pm 34.6 32.3 11.7 25 13.6 E 15 26 8 14 1011.3 1010.6 0.0
24/12:30pm 34.8 32.2 11.9 25 13.7 E 17 30 9 16 1012.0 1011.3 0.0
24/12:00pm 34.2 32.3 13.1 28 12.8 ENE 15 28 8 15 1012.6 1011.9 0.0
24/11:30am 33.8 32.0 13.3 29 12.4 ENE 15 28 8 15 1013.3 1012.5 0.0
24/11:00am 33.1 31.9 15.1 33 11.2 E 15 24 8 13 1013.9 1013.1 0.0
24/10:30am 31.9 31.7 16.6 39 9.7 E 13 20 7 11 1014.6 1013.8 0.0
24/10:00am 31.0 31.2 17.7 45 8.5 E 13 17 7 9 1015.2 1014.4 0.0
24/09:30am 30.0 31.1 18.8 51 7.3 ENE 11 19 6 10 1015.2 1014.4 0.0
24/09:00am 29.0 30.8 18.7 53 6.7 NE 7 13 4 7 1015.2 1014.4 0.0
24/08:30am 28.8 31.2 19.7 58 6.0 E 6 11 3 6 1015.0 1014.2 0.0
24/08:00am 26.7 30.3 20.5 69 4.1 N 2 6 1 3 1014.6 1013.8 0.0
24/07:30am 25.3 28.9 20.5 75 3.1 E 2 9 1 5 1014.4 1013.6 0.0
24/07:00am 23.4 27.3 20.3 83 2.0 CALM 0 0 0 0 1014.3 1013.5 0.0
24/06:30am 22.1 25.6 19.5 85 1.7 CALM 0 0 0 0 1014.1 1013.3 0.0
24/06:00am 22.4 25.9 19.6 84 1.8 CALM 0 0 0 0 1013.6 1012.8 0.0
24/05:30am 22.7 26.3 19.7 83 1.9 CALM 0 6 0 3 1013.2 1012.4 0.0
24/05:00am 22.9 26.5 19.7 82 2.1 CALM 0 4 0 2 1013.4 1012.6 0.0
24/04:30am 23.4 26.9 19.5 79 2.5 CALM 0 0 0 0 1013.2 1012.4 0.0
24/04:00am 24.1 27.3 19.8 77 2.8 NW 2 4 1 2 1013.1 1012.3 0.0
24/03:30am 24.5 27.0 19.8 75 3.0 NW 6 7 3 4 1012.9 1012.1 0.0
24/03:00am 25.0 27.9 19.8 73 3.4 NNW 4 6 2 3 1013.3 1012.5 0.0
24/02:30am 25.5 27.8 19.9 71 3.6 NNW 7 11 4 6 1013.4 1012.6 0.0
24/02:00am 25.7 28.3 20.0 71 3.7 NNE 6 9 3 5 1013.7 1012.9 0.0
24/01:30am 25.4 27.6 19.1 68 4.0 NE 6 9 3 5 1014.1 1013.3 0.0
24/01:00am 23.9 26.3 18.8 73 3.2 N 4 6 2 3 1013.9 1013.1 0.0
24/12:30am 24.6 27.5 19.0 71 3.6 N 2 4 1 2 1014.1 1013.3 0.0
24/12:00am 25.8 28.4 19.2 67 4.3 N 4 6 2 3 1014.4 1013.6 0.0
 
Date/Time
CST
Tmp

°C
App
Tmp
°C
Dew
Point
°C
Rel
Hum
%
Delta-T

°C
Wind Press
QNH
hPa
Press
MSL
hPa
Rain
since
9 am
mm
Dir
 
Spd
km/h
Gust
km/h
Spd
kts
Gust
kts
23/11:30pm 25.8 28.6 20.4 72 3.5 N 6 9 3 5 1014.3 1013.5 0.0
23/11:00pm 25.8 29.4 19.7 69 4.0 CALM 0 0 0 0 1014.1 1013.3 0.0
23/10:30pm 26.3 30.0 19.9 68 4.2 CALM 0 4 0 2 1014.0 1013.2 0.0
23/10:00pm 27.1 30.1 20.0 65 4.6 W 4 6 2 3 1013.6 1012.8 0.0
23/09:30pm 27.4 30.1 19.5 62 5.1 W 4 7 2 4 1013.1 1012.3 0.0
23/09:00pm 28.0 30.0 19.2 58 5.7 WNW 7 13 4 7 1012.4 1011.7 0.0
23/08:30pm 28.4 30.1 19.3 57 5.9 W 9 19 5 10 1012.0 1011.3 0.0
23/08:00pm 28.9 30.2 19.2 55 6.3 WNW 11 17 6 9 1011.6 1010.9 0.0
23/07:30pm 29.4 30.1 18.8 53 6.9 W 13 19 7 10 1011.3 1010.6 0.0
23/07:00pm 29.8 30.7 19.2 53 6.9 W 13 24 7 13 1010.7 1010.0 0.0
23/06:30pm 30.6 31.4 19.9 52 7.1 W 15 24 8 13 1010.4 1009.7 0.0
23/06:00pm 32.2 32.1 19.5 47 8.4 WNW 19 26 10 14 1009.7 1009.0 0.0
23/05:30pm 35.6 34.7 9.2 20 15.2 S 4 6 2 3 1009.2 1008.4 0.0
23/05:00pm 35.9 34.3 8.7 19 15.5 ESE 7 13 4 7 1009.0 1008.2 0.0
23/04:30pm 35.8 34.0 9.3 20 15.3 SE 9 15 5 8 1009.1 1008.3 0.0
23/04:00pm 36.0 33.5 8.0 18 15.8 ENE 11 15 6 8 1009.4 1008.6 0.0
23/03:30pm 36.4 34.1 9.1 19 15.8 SSE 11 26 6 14 1009.5 1008.8 0.0
23/03:00pm 36.6 33.8 10.0 20 15.6 SE 15 28 8 15 1009.8 1009.1 0.0
23/02:30pm 36.7 33.1 8.5 18 16.1 E 17 28 9 15 1010.1 1009.4 0.0
23/02:00pm 36.4 35.1 11.3 22 14.9 NNE 9 19 5 10 1010.5 1009.8 0.0
23/01:30pm 35.2 33.2 11.6 24 14.1 ENE 13 24 7 13 1011.1 1010.4 0.0
23/01:00pm 34.2 33.3 12.5 27 13.0 NNE 9 19 5 10 1012.0 1011.3 0.0
23/12:30pm 33.8 32.2 12.7 27 12.7 E 13 22 7 12 1012.5 1011.8 0.0
23/12:00pm 32.8 33.1 14.4 33 11.3 ESE 6 17 3 9 1013.2 1012.4 0.0
23/11:30am 32.8 31.5 14.9 34 11.1 NE 15 24 8 13 1013.7 1012.9 0.0
23/11:00am 32.2 30.6 13.9 33 11.1 ENE 15 24 8 13 1014.1 1013.3 0.0
23/10:30am 32.0 33.0 18.6 45 8.7 E 11 20 6 11 1014.6 1013.8 0.0
23/10:00am 30.5 31.5 18.6 49 7.7 NE 11 19 6 10 1015.0 1014.2 0.0
23/09:30am 29.9 30.7 19.0 52 7.1 ENE 13 24 7 13 1015.3 1014.5 0.0
23/09:00am 28.6 30.1 19.8 59 5.8 ENE 11 19 6 10 1015.4 1014.6 0.0
23/08:30am 27.8 29.7 19.8 61 5.2 N 9 13 5 7 1015.1 1014.3 0.0
23/08:00am 26.8 29.6 20.4 68 4.2 NNE 6 9 3 5 1015.1 1014.3 0.0
23/07:30am 26.1 30.3 21.7 77 2.9 N 2 4 1 2 1014.8 1014.0 0.0
23/07:00am 24.2 28.8 21.7 86 1.7 CALM 0 0 0 0 1014.4 1013.6 0.0
23/06:30am 23.3 27.1 21.0 87 1.5 N 2 4 1 2 1014.1 1013.3 0.0
23/06:00am 23.6 27.8 20.9 85 1.8 CALM 0 0 0 0 1013.9 1013.1 0.0
23/05:30am 24.3 28.0 20.8 81 2.3 N 2 4 1 2 1013.4 1012.6 0.0
23/05:00am 24.9 28.5 21.2 80 2.4 N 4 4 2 2 1013.0 1012.2 0.0
23/04:30am 25.0 28.5 21.1 79 2.6 N 4 6 2 3 1012.6 1011.9 0.0
23/04:00am 25.6 29.6 21.3 77 2.9 N 2 6 1 3 1012.8 1012.0 0.0
23/03:30am 25.9 29.7 21.6 77 2.9 N 4 6 2 3 1012.9 1012.1 0.0
23/03:00am 25.8 29.6 21.7 78 2.7 NE 4 7 2 4 1013.1 1012.3 0.0
23/02:30am 25.8 29.2 21.0 75 3.2 NE 4 9 2 5 1013.0 1012.2 0.0
23/02:00am 25.6 28.9 20.8 75 3.2 NNE 4 6 2 3 1013.4 1012.6 0.0
23/01:30am 25.5 29.1 20.5 74 3.3 NNE 2 4 1 2 1013.5 1012.7 0.0
23/01:00am 26.3 29.5 20.6 71 3.8 NNE 4 7 2 4 1013.8 1013.0 0.0
23/12:30am 25.9 29.0 20.2 71 3.7 NNE 4 4 2 2 1013.9 1013.1 0.0
23/12:00am 26.3 29.5 20.4 70 3.9 NNE 4 7 2 4 1014.1 1013.3 0.0
 
Date/Time
CST
Tmp

°C
App
Tmp
°C
Dew
Point
°C
Rel
Hum
%
Delta-T

°C
Wind Press
QNH
hPa
Press
MSL
hPa
Rain
since
9 am
mm
Dir
 
Spd
km/h
Gust
km/h
Spd
kts
Gust
kts
22/11:30pm 26.0 29.1 20.3 71 3.7 W 4 7 2 4 1014.1 1013.3 0.0
22/11:00pm 26.6 30.2 19.7 66 4.5 CALM 0 0 0 0 1014.1 1013.3 0.0
22/10:30pm 27.3 30.2 19.9 64 4.8 W 4 7 2 4 1014.1 1013.3 0.0
22/10:00pm 27.7 30.2 20.3 64 4.9 W 7 11 4 6 1013.5 1012.7 0.0
22/09:30pm 27.8 30.2 20.1 63 5.1 NW 7 13 4 7 1013.3 1012.5 0.0
22/09:00pm 28.1 30.1 19.9 61 5.4 WNW 9 15 5 8 1012.5 1011.8 0.0
22/08:30pm 28.6 30.5 19.8 59 5.8 W 9 15 5 8 1012.1 1011.4 0.0
22/08:00pm 29.1 30.6 19.7 57 6.2 W 11 17 6 9 1011.7 1011.0 0.0
22/07:30pm 29.7 31.6 19.7 55 6.6 W 9 13 5 7 1011.5 1010.8 0.0
22/07:00pm 30.3 31.4 19.6 52 7.0 W 13 22 7 12 1011.0 1010.3 0.0
22/06:30pm 31.5 31.0 19.2 48 8.1 WNW 20 24 11 13 1010.6 1009.9 0.0
22/06:00pm 35.2 34.4 10.9 23 14.3 E 6 13 3 7 1010.0 1009.3 0.0
22/05:30pm 35.8 34.5 10.1 21 15.0 ENE 7 13 4 7 1009.8 1009.1 0.0
22/05:00pm 36.0 34.8 10.2 21 15.1 ESE 7 17 4 9 1009.6 1008.9 0.0
22/04:30pm 36.5 33.9 10.6 21 15.3 E 15 24 8 13 1009.7 1009.0 0.0
22/04:00pm 35.5 32.5 10.5 22 14.7 E 17 28 9 15 1009.9 1009.2 0.0
22/03:30pm 35.4 32.9 11.1 23 14.4 E 15 24 8 13 1010.2 1009.5 0.0
22/03:00pm 36.5 35.0 12.0 23 14.8 SE 11 20 6 11 1010.4 1009.7 0.0
22/02:30pm 35.5 34.4 13.1 26 13.7 ESE 11 20 6 11 1010.8 1010.1 0.0
22/02:00pm 35.0 34.7 14.3 29 12.8 ENE 9 19 5 10 1011.3 1010.6 0.0
22/01:30pm 35.0 34.1 13.8 28 13.0 ENE 11 20 6 11 1012.0 1011.3 0.0

Latest Capital City Observations: Canberra | Sydney | Melbourne | Brisbane | Adelaide | Perth | Hobart | Darwin

Other Formats:

Comma delimited format used in spreadsheet applications
http://www.bom.gov.au/fwo/IDD60901/IDD60901.94125.axf

JavaScript Object Notation format (JSON) in row-major order
http://www.bom.gov.au/fwo/IDD60901/IDD60901.94125.json